createdAt,value
2023-06-21T00:03:14.992Z,20.70
2023-06-21T00:08:18.087Z,20.78
2023-06-21T00:13:22.295Z,20.81
2023-06-21T00:18:25.586Z,20.67
2023-06-21T00:23:28.521Z,20.70
2023-06-21T00:28:32.734Z,20.64
2023-06-21T00:33:35.582Z,20.66
2023-06-21T00:38:38.441Z,20.43
2023-06-21T00:43:42.675Z,20.38
2023-06-21T00:48:45.554Z,20.19
2023-06-21T00:53:48.400Z,20.17
2023-06-21T00:58:52.612Z,20.10
2023-06-21T01:03:57.209Z,20.11
2023-06-21T01:09:07.604Z,19.94
2023-06-21T01:14:22.883Z,20.00
2023-06-21T01:19:31.291Z,20.01
2023-06-21T01:24:57.379Z,19.87
2023-06-21T01:30:03.299Z,19.79
2023-06-21T01:35:10.127Z,19.67
2023-06-21T01:40:14.836Z,19.67
2023-06-21T01:45:23.101Z,19.71
2023-06-21T01:50:27.300Z,19.55
2023-06-21T01:55:31.170Z,19.35
2023-06-21T02:00:35.494Z,19.38
2023-06-21T02:05:38.709Z,19.33
2023-06-21T02:10:43.469Z,19.43
2023-06-21T02:15:48.243Z,19.27
2023-06-21T02:20:51.430Z,19.21
2023-06-21T02:25:55.875Z,19.17
2023-06-21T02:31:00.023Z,19.05
2023-06-21T02:36:03.252Z,19.05
2023-06-21T02:41:06.678Z,19.02
2023-06-21T02:46:10.878Z,18.88
2023-06-21T02:51:13.735Z,18.93
2023-06-21T02:56:16.593Z,18.93
2023-06-21T03:01:20.926Z,18.82
2023-06-21T03:06:24.757Z,18.77
2023-06-21T03:11:27.676Z,18.78
2023-06-21T03:16:33.689Z,18.79
2023-06-21T03:21:36.662Z,18.82
2023-06-21T03:26:39.493Z,18.78
2023-06-21T03:31:43.828Z,18.86
2023-06-21T03:36:47.136Z,18.89
2023-06-21T03:41:51.636Z,18.94
2023-06-21T03:46:55.927Z,19.02
2023-06-21T03:51:59.054Z,18.89
2023-06-21T03:57:01.950Z,19.07
2023-06-21T04:02:08.137Z,19.17
2023-06-21T04:07:11.094Z,19.16
2023-06-21T04:12:14.128Z,19.14
2023-06-21T04:17:18.441Z,19.19
2023-06-21T04:22:22.514Z,19.18
2023-06-21T04:27:25.490Z,19.21
2023-06-21T04:32:33.148Z,19.25
2023-06-21T04:37:38.259Z,19.32
2023-06-21T04:42:42.044Z,19.38
2023-06-21T04:47:47.525Z,19.50
2023-06-21T04:52:51.436Z,19.69
2023-06-21T04:57:54.625Z,19.85
2023-06-21T05:02:59.162Z,19.96
2023-06-21T05:08:02.192Z,20.04
2023-06-21T05:13:05.720Z,20.18
2023-06-21T05:18:09.943Z,20.35
2023-06-21T05:23:12.909Z,20.55
2023-06-21T05:28:15.828Z,20.51
2023-06-21T05:33:20.224Z,20.58
2023-06-21T05:38:23.454Z,20.65
2023-06-21T05:43:26.364Z,21.10
2023-06-21T05:48:31.517Z,21.15
2023-06-21T05:53:34.465Z,21.46
2023-06-21T05:58:37.318Z,21.93
2023-06-21T06:03:41.634Z,21.86
2023-06-21T06:08:44.567Z,21.57
2023-06-21T06:13:47.476Z,22.13
2023-06-21T06:18:51.714Z,22.49
2023-06-21T06:23:55.157Z,22.47
2023-06-21T06:28:58.335Z,22.59
2023-06-21T06:34:02.848Z,24.72
2023-06-21T06:39:07.381Z,25.65
2023-06-21T06:44:10.350Z,26.13
2023-06-21T06:49:14.748Z,26.95
2023-06-21T06:54:17.634Z,27.66
2023-06-21T06:59:20.567Z,28.39
2023-06-21T07:04:26.948Z,28.44
2023-06-21T07:09:30.422Z,29.38
2023-06-21T07:14:33.369Z,30.43
2023-06-21T07:19:38.410Z,30.45
2023-06-21T07:24:41.496Z,30.99
2023-06-21T07:29:44.523Z,29.21
2023-06-21T07:34:49.683Z,29.35
2023-06-21T07:39:54.913Z,27.05
2023-06-21T07:44:58.321Z,27.06
2023-06-21T07:50:16.626Z,28.84
2023-06-21T07:55:23.802Z,30.38
2023-06-21T08:00:26.845Z,31.94
2023-06-21T08:05:31.530Z,29.56
2023-06-21T08:10:35.123Z,29.36
2023-06-21T08:15:38.165Z,29.69
2023-06-21T08:20:43.003Z,30.37
2023-06-21T08:25:46.967Z,30.18
2023-06-21T08:30:49.916Z,29.96
2023-06-21T08:35:54.205Z,29.44
2023-06-21T08:41:00.312Z,29.01
2023-06-21T08:46:08.624Z,29.03
2023-06-21T08:51:13.837Z,28.58
2023-06-21T08:56:20.250Z,27.90
2023-06-21T09:01:24.935Z,27.57
2023-06-21T09:06:29.642Z,27.21
2023-06-21T09:11:33.402Z,27.83
2023-06-21T09:16:36.721Z,28.24
2023-06-21T09:21:43.603Z,28.28
2023-06-21T09:26:46.557Z,27.27
2023-06-21T09:31:49.538Z,26.57
2023-06-21T09:36:55.880Z,26.63
2023-06-21T09:41:58.819Z,26.52
2023-06-21T09:47:04.396Z,26.69
2023-06-21T09:52:09.333Z,26.76
2023-06-21T09:57:14.734Z,26.51
2023-06-21T10:02:17.679Z,27.02
2023-06-21T10:07:23.347Z,26.98
2023-06-21T10:12:26.371Z,26.74
2023-06-21T10:17:29.472Z,25.55
2023-06-21T10:22:34.577Z,26.39
2023-06-21T10:27:37.827Z,25.86
2023-06-21T10:32:44.191Z,26.25
2023-06-21T10:37:53.028Z,25.66
2023-06-21T10:42:57.222Z,25.69
2023-06-21T10:48:00.510Z,26.41
2023-06-21T10:53:06.458Z,25.73
2023-06-21T10:58:09.531Z,26.19
2023-06-21T11:03:14.346Z,26.29
2023-06-21T11:08:18.782Z,26.13
2023-06-21T11:13:35.853Z,25.99
2023-06-21T11:18:38.869Z,26.40
2023-06-21T11:23:53.523Z,26.41
2023-06-21T11:28:57.131Z,26.83
2023-06-21T11:34:06.789Z,26.16
2023-06-21T11:39:27.377Z,25.24
2023-06-21T11:44:34.346Z,24.85
2023-06-21T11:49:54.406Z,25.55
2023-06-21T11:55:00.324Z,25.60
2023-06-21T12:00:04.991Z,25.31
2023-06-21T12:05:12.055Z,26.08
2023-06-21T12:10:16.599Z,25.80
2023-06-21T12:15:19.840Z,25.73
2023-06-21T12:20:22.857Z,25.86
2023-06-21T12:25:27.163Z,26.41
2023-06-21T12:30:30.537Z,25.87
2023-06-21T12:35:38.576Z,25.99
2023-06-21T12:40:58.695Z,25.65
2023-06-21T12:46:01.808Z,25.76
2023-06-21T12:51:05.206Z,25.68
2023-06-21T12:56:10.876Z,25.77
2023-06-21T13:01:13.832Z,26.14
2023-06-21T13:06:17.505Z,26.29
2023-06-21T13:11:23.040Z,26.16
2023-06-21T13:16:26.146Z,26.27
2023-06-21T13:21:29.912Z,25.85
2023-06-21T13:26:34.223Z,26.23
2023-06-21T13:31:38.082Z,26.14
2023-06-21T13:36:40.954Z,26.39
2023-06-21T13:41:45.247Z,26.56
2023-06-21T13:46:48.548Z,26.40
2023-06-21T13:51:52.022Z,26.71
2023-06-21T13:56:56.473Z,26.56
2023-06-21T14:01:59.391Z,26.60
2023-06-21T14:07:03.368Z,26.87
2023-06-21T14:12:13.162Z,27.13
2023-06-21T14:17:16.724Z,27.05
2023-06-21T14:22:20.153Z,27.08
2023-06-21T14:27:27.566Z,27.10
2023-06-21T14:32:31.177Z,26.83
2023-06-21T14:37:34.703Z,26.86
2023-06-21T14:42:39.031Z,26.96
2023-06-21T14:47:42.108Z,26.95
2023-06-21T14:52:45.766Z,27.09
2023-06-21T14:57:53.920Z,27.14
2023-06-21T15:02:57.201Z,27.09
2023-06-21T15:08:00.098Z,27.24
2023-06-21T15:13:04.635Z,27.16
2023-06-21T15:18:08.597Z,27.18
2023-06-21T15:23:12.338Z,27.11
2023-06-21T15:28:16.846Z,27.08
2023-06-21T15:33:19.902Z,26.96
2023-06-21T15:38:26.274Z,26.89
2023-06-21T15:43:31.314Z,27.27
2023-06-21T15:48:36.681Z,27.26
2023-06-21T15:53:39.907Z,26.89
2023-06-21T15:58:44.483Z,27.11
2023-06-21T16:03:48.497Z,27.18
2023-06-21T16:08:56.703Z,27.19
2023-06-21T16:14:01.721Z,27.07
2023-06-21T16:19:04.624Z,26.87
2023-06-21T16:24:10.164Z,26.73
2023-06-21T16:29:15.586Z,26.66
2023-06-21T16:34:23.835Z,26.57
2023-06-21T16:39:29.912Z,26.73
2023-06-21T16:44:34.762Z,26.53
2023-06-21T16:49:38.943Z,26.33
2023-06-21T16:54:42.068Z,26.18
2023-06-21T16:59:48.777Z,26.06
2023-06-21T17:04:51.699Z,25.88
2023-06-21T17:09:54.941Z,25.83
2023-06-21T17:15:01.414Z,25.79
2023-06-21T17:20:07.016Z,25.60
2023-06-21T17:25:14.713Z,25.72
2023-06-21T17:30:19.316Z,25.53
2023-06-21T17:35:22.556Z,25.39
2023-06-21T17:40:25.475Z,25.23
2023-06-21T17:45:31.455Z,25.34
2023-06-21T17:50:34.474Z,24.79
2023-06-21T17:55:37.406Z,25.01
2023-06-21T18:00:41.696Z,25.03
2023-06-21T18:05:45.007Z,24.89
2023-06-21T18:10:48.088Z,24.83
2023-06-21T18:15:54.608Z,24.81
2023-06-21T18:20:57.654Z,24.72
2023-06-21T18:26:00.650Z,24.77
2023-06-21T18:31:05.036Z,24.59
2023-06-21T18:36:08.238Z,24.55
2023-06-21T18:41:11.313Z,24.24
2023-06-21T18:46:15.591Z,24.24
2023-06-21T18:51:18.610Z,24.22
2023-06-21T18:56:21.676Z,24.10
2023-06-21T19:01:26.484Z,24.08
2023-06-21T19:06:29.542Z,23.85
2023-06-21T19:11:33.153Z,23.70
2023-06-21T19:16:37.629Z,23.66
2023-06-21T19:21:41.696Z,23.42
2023-06-21T19:26:55.905Z,23.22
2023-06-21T19:32:01.059Z,23.06
2023-06-21T19:37:05.828Z,22.80
2023-06-21T19:42:09.276Z,22.69
2023-06-21T19:47:15.296Z,22.55
2023-06-21T19:52:18.415Z,22.27
2023-06-21T19:57:21.392Z,22.16
2023-06-21T20:02:26.441Z,22.12
2023-06-21T20:07:30.365Z,22.00
2023-06-21T20:12:33.472Z,21.92
2023-06-21T20:17:38.236Z,21.85
2023-06-21T20:22:41.169Z,21.79
2023-06-21T20:27:44.875Z,21.69
2023-06-21T20:32:49.864Z,21.60
2023-06-21T20:37:52.942Z,21.51
2023-06-21T20:42:57.543Z,21.47
2023-06-21T20:48:02.994Z,21.41
2023-06-21T20:53:05.935Z,21.40
2023-06-21T20:58:08.777Z,21.26
2023-06-21T21:03:13.093Z,21.21
2023-06-21T21:08:16.261Z,21.11
2023-06-21T21:13:19.124Z,21.11
2023-06-21T21:18:23.352Z,21.03
2023-06-21T21:23:51.572Z,20.95
2023-06-21T21:28:55.151Z,20.83
2023-06-21T21:34:00.004Z,20.77
2023-06-21T21:39:02.899Z,20.73
2023-06-21T21:44:06.432Z,20.50
2023-06-21T21:49:10.659Z,20.34
2023-06-21T21:54:13.487Z,20.42
2023-06-21T21:59:16.523Z,20.32
2023-06-21T22:04:20.870Z,20.35
2023-06-21T22:09:24.283Z,20.35
2023-06-21T22:14:33.326Z,20.25
2023-06-21T22:19:37.767Z,20.14
2023-06-21T22:24:41.479Z,20.14
2023-06-21T22:29:46.698Z,20.03
2023-06-21T22:34:53.797Z,19.93
2023-06-21T22:39:56.807Z,19.60
2023-06-21T22:44:59.687Z,19.64
2023-06-21T22:50:04.256Z,19.63
2023-06-21T22:55:07.901Z,19.60
2023-06-21T23:00:11.904Z,19.62
2023-06-21T23:05:16.755Z,19.53
2023-06-21T23:10:19.864Z,19.48
2023-06-21T23:15:24.399Z,19.43
2023-06-21T23:20:33.961Z,19.40
2023-06-21T23:25:36.899Z,19.38
2023-06-21T23:30:44.455Z,19.37
2023-06-21T23:35:48.920Z,19.32
2023-06-21T23:40:51.719Z,19.29
2023-06-21T23:45:54.565Z,19.31
2023-06-21T23:50:59.772Z,19.22
2023-06-21T23:56:04.402Z,19.16
